createdAt,value
2017-03-01T00:00:03.405Z,0
2017-03-01T00:05:02.956Z,0
2017-03-01T00:10:02.867Z,0
2017-03-01T00:15:02.553Z,0
2017-03-01T00:20:03.265Z,0
2017-03-01T00:25:03.034Z,0
2017-03-01T00:30:02.809Z,0
2017-03-01T00:35:02.837Z,0
2017-03-01T00:40:02.749Z,0
2017-03-01T00:45:02.682Z,0
2017-03-01T00:50:02.529Z,0
2017-03-01T00:55:02.529Z,0
2017-03-01T01:00:03.439Z,0
2017-03-01T01:05:02.812Z,0
2017-03-01T01:10:02.876Z,0
2017-03-01T01:15:02.833Z,0
2017-03-01T01:20:02.673Z,0
2017-03-01T01:25:03.385Z,0
2017-03-01T01:30:03.310Z,0
2017-03-01T01:35:03.008Z,0
2017-03-01T01:40:02.888Z,0
2017-03-01T01:45:02.926Z,0
2017-03-01T01:50:02.755Z,0
2017-03-01T01:55:02.543Z,0
2017-03-01T02:00:02.461Z,0
2017-03-01T02:05:03.285Z,0
2017-03-01T02:10:03.113Z,0
2017-03-01T02:15:02.982Z,0
2017-03-01T02:20:02.711Z,0
2017-03-01T02:25:02.757Z,0
2017-03-01T02:30:02.688Z,0
2017-03-01T02:35:02.450Z,0
2017-03-01T02:40:02.489Z,0
2017-03-01T02:45:03.457Z,0
2017-03-01T02:50:02.445Z,0
2017-03-01T02:55:03.359Z,0
2017-03-01T03:00:03.280Z,0
2017-03-01T03:05:03.052Z,0
2017-03-01T03:10:03.092Z,0
2017-03-01T03:15:02.913Z,0
2017-03-01T03:20:02.752Z,0
2017-03-01T03:25:02.525Z,0
2017-03-01T03:30:03.421Z,0
2017-03-01T03:35:03.225Z,0
2017-03-01T03:40:03.260Z,0
2017-03-01T03:45:03.130Z,0
2017-03-01T03:50:02.833Z,0
2017-03-01T03:55:02.651Z,0
2017-03-01T04:00:02.495Z,0
2017-03-01T04:05:02.594Z,0
2017-03-01T04:10:02.507Z,0
2017-03-01T04:15:03.343Z,0
2017-03-01T04:20:03.160Z,0
2017-03-01T04:25:03.017Z,0
2017-03-01T04:30:03.041Z,0
2017-03-01T04:35:02.931Z,0
2017-03-01T04:40:02.830Z,0
2017-03-01T04:45:03.008Z,0
2017-03-01T04:50:02.969Z,0
2017-03-01T04:55:02.817Z,0
2017-03-01T05:00:03.228Z,0
2017-03-01T05:05:02.977Z,0
2017-03-01T05:10:02.936Z,0
2017-03-01T05:15:02.540Z,0
2017-03-01T05:20:03.284Z,0
2017-03-01T05:25:03.130Z,0
2017-03-01T05:30:03.128Z,0
2017-03-01T05:35:02.829Z,0
2017-03-01T05:40:02.736Z,0
2017-03-01T05:45:03.402Z,0
2017-03-01T05:50:03.204Z,1
2017-03-01T05:55:02.833Z,3
2017-03-01T06:00:02.736Z,4
2017-03-01T06:05:02.722Z,13
2017-03-01T06:10:02.524Z,26
2017-03-01T06:15:02.489Z,47
2017-03-01T06:20:03.325Z,58
2017-03-01T06:25:03.158Z,62
2017-03-01T06:30:03.111Z,118
2017-03-01T06:35:02.752Z,167
2017-03-01T06:40:02.627Z,297
2017-03-01T06:45:03.340Z,320
2017-03-01T06:50:03.321Z,294
2017-03-01T06:55:03.152Z,147
2017-03-01T07:00:02.962Z,729
2017-03-01T07:05:02.738Z,842
2017-03-01T07:10:02.573Z,612
2017-03-01T07:15:03.290Z,896
2017-03-01T07:30:03.478Z,2000
2017-03-01T07:35:03.439Z,1000
2017-03-01T07:40:03.378Z,895
2017-03-01T07:45:03.430Z,1000
2017-03-01T07:50:03.240Z,1000
2017-03-01T07:55:02.967Z,1000
2017-03-01T08:00:03.119Z,633
2017-03-01T08:05:02.814Z,1000
2017-03-01T08:10:02.845Z,841
2017-03-01T08:15:02.607Z,1000
2017-03-01T08:20:03.309Z,1000
2017-03-01T08:25:03.134Z,1000
2017-03-01T08:30:02.899Z,1000
2017-03-01T08:35:02.805Z,2000
2017-03-01T08:40:02.719Z,3000
2017-03-01T08:45:02.529Z,4000
2017-03-01T08:50:03.410Z,3000
2017-03-01T08:55:03.112Z,2000
2017-03-01T09:00:02.939Z,1000
2017-03-01T09:05:02.786Z,677
2017-03-01T09:10:02.796Z,950
2017-03-01T09:15:02.626Z,1000
2017-03-01T09:20:03.361Z,5000
2017-03-01T09:25:03.156Z,7000
2017-03-01T09:30:03.137Z,22000
2017-03-01T09:35:02.977Z,12000
2017-03-01T09:40:02.711Z,17000
2017-03-01T09:45:02.820Z,8000
2017-03-01T09:50:02.820Z,7000
2017-03-01T09:55:02.478Z,8000
2017-03-01T10:00:03.447Z,4000
2017-03-01T10:05:03.435Z,4000
2017-03-01T10:10:02.505Z,5000
2017-03-01T10:15:03.316Z,5000
2017-03-01T10:20:03.181Z,10000
2017-03-01T10:25:02.997Z,8000
2017-03-01T10:30:02.763Z,8000
2017-03-01T10:35:02.625Z,5000
2017-03-01T10:40:02.505Z,4000
2017-03-01T10:45:02.507Z,4000
2017-03-01T10:50:03.332Z,5000
2017-03-01T10:55:03.022Z,3000
2017-03-01T11:00:02.960Z,2000
2017-03-01T11:05:03.023Z,2000
2017-03-01T11:10:02.854Z,2000
2017-03-01T11:15:02.793Z,3000
2017-03-01T11:20:02.738Z,3000
2017-03-01T11:25:02.914Z,3000
2017-03-01T11:30:02.816Z,8000
2017-03-01T11:35:02.983Z,2000
2017-03-01T11:40:03.234Z,3000
2017-03-01T11:45:03.323Z,8000
2017-03-01T11:50:03.391Z,7000
2017-03-01T11:55:02.588Z,8000
2017-03-01T12:00:03.467Z,5000
2017-03-01T12:05:03.412Z,4000
2017-03-01T12:10:02.780Z,7000
2017-03-01T12:15:02.958Z,7000
2017-03-01T12:20:02.998Z,9000
2017-03-01T12:25:02.476Z,11000
2017-03-01T12:30:03.027Z,16000
2017-03-01T12:35:03.173Z,16000
2017-03-01T12:40:03.164Z,7000
2017-03-01T12:45:03.025Z,10000
2017-03-01T12:50:02.920Z,6000
2017-03-01T12:55:02.861Z,6000
2017-03-01T13:00:02.787Z,4000
2017-03-01T13:05:02.663Z,6000
2017-03-01T13:10:02.604Z,25000
2017-03-01T13:15:03.463Z,5000
2017-03-01T13:20:03.298Z,5000
2017-03-01T13:25:03.370Z,4000
2017-03-01T13:30:03.384Z,26000
2017-03-01T13:35:03.464Z,7000
2017-03-01T13:40:02.525Z,29000
2017-03-01T13:45:03.203Z,9000
2017-03-01T13:50:03.190Z,35000
2017-03-01T13:55:03.144Z,19000
2017-03-01T14:00:02.906Z,13000
2017-03-01T14:05:02.875Z,21000
2017-03-01T14:10:02.728Z,5000
2017-03-01T14:15:02.511Z,6000
2017-03-01T14:20:03.464Z,6000
2017-03-01T14:25:03.387Z,6000
2017-03-01T14:30:03.185Z,4000
2017-03-01T14:35:03.370Z,3000
2017-03-01T14:40:03.154Z,3000
2017-03-01T14:45:03.041Z,4000
2017-03-01T14:50:03.021Z,2000
2017-03-01T14:55:03.057Z,1000
2017-03-01T15:00:02.529Z,4000
2017-03-01T15:05:02.522Z,4000
2017-03-01T15:10:02.762Z,3000
2017-03-01T15:15:02.984Z,3000
2017-03-01T15:20:02.656Z,3000
2017-03-01T15:25:02.548Z,4000
2017-03-01T15:30:03.401Z,2000
2017-03-01T15:35:03.273Z,2000
2017-03-01T15:40:03.187Z,725
2017-03-01T15:45:03.293Z,593
2017-03-01T15:50:03.261Z,1000
2017-03-01T15:55:03.180Z,2000
2017-03-01T16:00:03.236Z,2000
2017-03-01T16:05:02.987Z,1000
2017-03-01T16:10:03.064Z,2000
2017-03-01T16:15:03.156Z,2000
2017-03-01T16:20:02.890Z,1000
2017-03-01T16:25:02.682Z,1000
2017-03-01T16:30:02.808Z,1000
2017-03-01T16:35:02.623Z,732
2017-03-01T16:40:03.477Z,699
2017-03-01T16:45:03.391Z,621
2017-03-01T16:50:03.201Z,504
2017-03-01T16:55:02.865Z,373
2017-03-01T17:00:02.554Z,360
2017-03-01T17:05:02.613Z,115
2017-03-01T17:10:02.506Z,79
2017-03-01T17:15:03.334Z,64
2017-03-01T17:20:03.281Z,40
2017-03-01T17:25:03.144Z,25
2017-03-01T17:30:02.992Z,11
2017-03-01T17:35:02.801Z,4
2017-03-01T17:40:02.836Z,1
2017-03-01T17:45:02.713Z,0
2017-03-01T17:50:02.745Z,0
2017-03-01T17:55:02.575Z,0
2017-03-01T18:00:03.363Z,0
2017-03-01T18:05:03.133Z,0
2017-03-01T18:10:02.889Z,0
2017-03-01T18:15:02.998Z,0
2017-03-01T18:20:02.699Z,0
2017-03-01T18:25:02.504Z,0
2017-03-01T18:30:02.555Z,0
2017-03-01T18:35:03.350Z,0
2017-03-01T18:40:03.450Z,0
2017-03-01T18:45:03.487Z,0
2017-03-01T18:50:02.486Z,0
2017-03-01T18:55:03.155Z,0
2017-03-01T19:00:02.948Z,0
2017-03-01T19:05:02.812Z,0
2017-03-01T19:10:02.512Z,0
2017-03-01T19:15:03.368Z,0
2017-03-01T19:20:03.427Z,0
2017-03-01T19:25:03.177Z,0
2017-03-01T19:30:02.994Z,0
2017-03-01T19:35:02.751Z,0
2017-03-01T19:40:02.823Z,0
2017-03-01T19:45:02.474Z,0
2017-03-01T19:50:03.213Z,0
2017-03-01T19:55:02.952Z,0
2017-03-01T20:00:02.747Z,0
2017-03-01T20:05:02.668Z,0
2017-03-01T20:10:02.502Z,0
2017-03-01T20:15:02.513Z,0
2017-03-01T20:20:03.339Z,0
2017-03-01T20:25:03.173Z,0
2017-03-01T20:30:02.945Z,0
2017-03-01T20:35:02.658Z,0
2017-03-01T20:40:02.480Z,0
2017-03-01T20:45:03.239Z,0
2017-03-01T20:50:03.005Z,0
2017-03-01T20:55:03.121Z,0
2017-03-01T21:00:02.906Z,0
2017-03-01T21:05:02.647Z,0
2017-03-01T21:10:02.547Z,0
2017-03-01T21:15:03.299Z,0
2017-03-01T21:20:03.312Z,0
2017-03-01T21:25:03.127Z,0
2017-03-01T21:30:03.004Z,0
2017-03-01T21:35:02.718Z,0
2017-03-01T21:40:02.651Z,0
2017-03-01T21:45:03.316Z,0
2017-03-01T21:50:03.293Z,0
2017-03-01T21:55:02.969Z,0
2017-03-01T22:00:03.208Z,0
2017-03-01T22:05:03.011Z,0
2017-03-01T22:10:02.844Z,0
2017-03-01T22:15:02.704Z,0
2017-03-01T22:20:02.647Z,0
2017-03-01T22:25:03.256Z,0
2017-03-01T22:30:03.003Z,0
2017-03-01T22:35:03.000Z,0
2017-03-01T22:40:02.984Z,0
2017-03-01T22:45:02.987Z,0
2017-03-01T22:50:02.783Z,0
2017-03-01T22:55:02.642Z,0
2017-03-01T23:00:03.269Z,0
2017-03-01T23:05:03.122Z,0
2017-03-01T23:10:02.853Z,0
2017-03-01T23:15:02.896Z,0
2017-03-01T23:20:02.603Z,0
2017-03-01T23:25:02.591Z,0
2017-03-01T23:30:02.637Z,0
2017-03-01T23:35:03.352Z,0
2017-03-01T23:40:03.358Z,0
2017-03-01T23:45:03.363Z,0
2017-03-01T23:50:03.119Z,0
2017-03-01T23:55:02.955Z,0
